sensor_id;sensor_type;location;lat;lon;timestamp;P1;durP1;ratioP1;P2;durP2;ratioP2
11711;SDS011;5912;51.034;6.984;2022-11-06T00:00:38;9.95;;;5.72;;
11711;SDS011;5912;51.034;6.984;2022-11-06T00:03:04;7.30;;;5.25;;
11711;SDS011;5912;51.034;6.984;2022-11-06T00:05:30;10.83;;;5.30;;
11711;SDS011;5912;51.034;6.984;2022-11-06T00:08:14;8.17;;;5.23;;
11711;SDS011;5912;51.034;6.984;2022-11-06T00:10:40;7.80;;;4.90;;
11711;SDS011;5912;51.034;6.984;2022-11-06T00:13:05;8.88;;;4.90;;
11711;SDS011;5912;51.034;6.984;2022-11-06T00:15:31;6.72;;;4.55;;
11711;SDS011;5912;51.034;6.984;2022-11-06T00:17:57;6.60;;;4.60;;
11711;SDS011;5912;51.034;6.984;2022-11-06T00:20:23;7.47;;;4.68;;
11711;SDS011;5912;51.034;6.984;2022-11-06T00:22:48;6.43;;;4.00;;
11711;SDS011;5912;51.034;6.984;2022-11-06T00:25:14;5.03;;;4.07;;
11711;SDS011;5912;51.034;6.984;2022-11-06T00:27:40;8.97;;;4.30;;
11711;SDS011;5912;51.034;6.984;2022-11-06T00:30:07;4.60;;;4.00;;
11711;SDS011;5912;51.034;6.984;2022-11-06T00:32:36;7.57;;;4.30;;
11711;SDS011;5912;51.034;6.984;2022-11-06T00:35:02;6.80;;;3.92;;
11711;SDS011;5912;51.034;6.984;2022-11-06T00:37:27;5.07;;;4.38;;
11711;SDS011;5912;51.034;6.984;2022-11-06T00:39:52;7.20;;;3.90;;
11711;SDS011;5912;51.034;6.984;2022-11-06T00:42:18;7.83;;;4.40;;
11711;SDS011;5912;51.034;6.984;2022-11-06T00:44:43;4.63;;;3.70;;
11711;SDS011;5912;51.034;6.984;2022-11-06T00:47:08;5.53;;;3.87;;
11711;SDS011;5912;51.034;6.984;2022-11-06T00:49:34;5.77;;;4.00;;
11711;SDS011;5912;51.034;6.984;2022-11-06T00:51:59;5.73;;;3.60;;
11711;SDS011;5912;51.034;6.984;2022-11-06T00:54:25;4.95;;;3.65;;
11711;SDS011;5912;51.034;6.984;2022-11-06T00:56:50;7.40;;;3.57;;
11711;SDS011;5912;51.034;6.984;2022-11-06T00:59:16;9.83;;;3.20;;
11711;SDS011;5912;51.034;6.984;2022-11-06T01:01:42;6.03;;;3.90;;
11711;SDS011;5912;51.034;6.984;2022-11-06T01:04:12;5.80;;;3.50;;
11711;SDS011;5912;51.034;6.984;2022-11-06T01:06:41;5.88;;;3.67;;
11711;SDS011;5912;51.034;6.984;2022-11-06T01:09:13;5.33;;;3.77;;
11711;SDS011;5912;51.034;6.984;2022-11-06T01:11:41;4.47;;;3.10;;
11711;SDS011;5912;51.034;6.984;2022-11-06T01:14:09;5.90;;;3.70;;
11711;SDS011;5912;51.034;6.984;2022-11-06T01:16:36;6.67;;;3.63;;
11711;SDS011;5912;51.034;6.984;2022-11-06T01:19:01;10.13;;;4.00;;
11711;SDS011;5912;51.034;6.984;2022-11-06T01:21:28;5.03;;;2.90;;
11711;SDS011;5912;51.034;6.984;2022-11-06T01:23:56;4.63;;;3.23;;
11711;SDS011;5912;51.034;6.984;2022-11-06T01:26:23;4.80;;;2.93;;
11711;SDS011;5912;51.034;6.984;2022-11-06T01:28:50;4.70;;;2.97;;
11711;SDS011;5912;51.034;6.984;2022-11-06T01:31:17;6.67;;;3.63;;
11711;SDS011;5912;51.034;6.984;2022-11-06T01:33:46;5.77;;;3.40;;
11711;SDS011;5912;51.034;6.984;2022-11-06T01:36:12;6.30;;;2.93;;
11711;SDS011;5912;51.034;6.984;2022-11-06T01:38:39;3.63;;;2.97;;
11711;SDS011;5912;51.034;6.984;2022-11-06T01:41:06;6.10;;;3.23;;
11711;SDS011;5912;51.034;6.984;2022-11-06T01:46:14;6.50;;;3.00;;
11711;SDS011;5912;51.034;6.984;2022-11-06T01:48:42;6.40;;;3.00;;
11711;SDS011;5912;51.034;6.984;2022-11-06T01:51:11;4.93;;;2.50;;
11711;SDS011;5912;51.034;6.984;2022-11-06T01:53:38;7.30;;;3.00;;
11711;SDS011;5912;51.034;6.984;2022-11-06T01:56:04;4.17;;;2.73;;
11711;SDS011;5912;51.034;6.984;2022-11-06T01:58:33;4.13;;;2.57;;
11711;SDS011;5912;51.034;6.984;2022-11-06T02:01:02;7.47;;;2.67;;
11711;SDS011;5912;51.034;6.984;2022-11-06T02:03:28;4.30;;;2.67;;
11711;SDS011;5912;51.034;6.984;2022-11-06T02:05:54;5.83;;;2.40;;
11711;SDS011;5912;51.034;6.984;2022-11-06T02:08:21;3.90;;;2.40;;
11711;SDS011;5912;51.034;6.984;2022-11-06T02:10:47;7.47;;;2.60;;
11711;SDS011;5912;51.034;6.984;2022-11-06T02:24:26;6.23;;;2.43;;
11711;SDS011;5912;51.034;6.984;2022-11-06T02:32:17;3.60;;;2.50;;
11711;SDS011;5912;51.034;6.984;2022-11-06T02:34:48;3.70;;;2.40;;
11711;SDS011;5912;51.034;6.984;2022-11-06T02:37:18;5.03;;;2.63;;
11711;SDS011;5912;51.034;6.984;2022-11-06T02:39:47;6.70;;;2.57;;
11711;SDS011;5912;51.034;6.984;2022-11-06T02:42:15;3.23;;;2.30;;
11711;SDS011;5912;51.034;6.984;2022-11-06T02:44:43;3.40;;;2.17;;
11711;SDS011;5912;51.034;6.984;2022-11-06T02:47:13;4.53;;;2.50;;
11711;SDS011;5912;51.034;6.984;2022-11-06T02:49:41;5.00;;;2.60;;
11711;SDS011;5912;51.034;6.984;2022-11-06T02:52:11;5.43;;;2.90;;
11711;SDS011;5912;51.034;6.984;2022-11-06T02:54:41;3.83;;;2.17;;
11711;SDS011;5912;51.034;6.984;2022-11-06T02:57:12;7.77;;;2.57;;
11711;SDS011;5912;51.034;6.984;2022-11-06T03:02:31;3.10;;;2.47;;
11711;SDS011;5912;51.034;6.984;2022-11-06T03:05:05;4.87;;;2.10;;
11711;SDS011;5912;51.034;6.984;2022-11-06T03:07:38;3.67;;;2.47;;
11711;SDS011;5912;51.034;6.984;2022-11-06T03:10:11;7.67;;;2.70;;
11711;SDS011;5912;51.034;6.984;2022-11-06T03:12:52;5.23;;;2.43;;
11711;SDS011;5912;51.034;6.984;2022-11-06T03:18:26;6.23;;;2.43;;
11711;SDS011;5912;51.034;6.984;2022-11-06T03:21:17;4.20;;;2.37;;
11711;SDS011;5912;51.034;6.984;2022-11-06T03:23:50;3.50;;;2.37;;
11711;SDS011;5912;51.034;6.984;2022-11-06T03:26:23;6.80;;;2.27;;
11711;SDS011;5912;51.034;6.984;2022-11-06T03:29:00;5.53;;;2.17;;
11711;SDS011;5912;51.034;6.984;2022-11-06T03:31:38;3.60;;;2.43;;
11711;SDS011;5912;51.034;6.984;2022-11-06T03:34:08;5.63;;;2.53;;
11711;SDS011;5912;51.034;6.984;2022-11-06T03:36:42;4.90;;;2.20;;
11711;SDS011;5912;51.034;6.984;2022-11-06T03:39:12;3.80;;;2.40;;
11711;SDS011;5912;51.034;6.984;2022-11-06T03:41:45;3.20;;;1.80;;
11711;SDS011;5912;51.034;6.984;2022-11-06T03:44:19;2.73;;;1.83;;
11711;SDS011;5912;51.034;6.984;2022-11-06T03:46:51;5.33;;;2.17;;
11711;SDS011;5912;51.034;6.984;2022-11-06T03:49:25;4.07;;;2.40;;
11711;SDS011;5912;51.034;6.984;2022-11-06T03:51:56;4.70;;;1.90;;
11711;SDS011;5912;51.034;6.984;2022-11-06T03:55:12;4.23;;;2.17;;
11711;SDS011;5912;51.034;6.984;2022-11-06T03:57:21;3.07;;;2.00;;
11711;SDS011;5912;51.034;6.984;2022-11-06T03:59:58;4.23;;;2.17;;
11711;SDS011;5912;51.034;6.984;2022-11-06T04:02:27;6.47;;;2.10;;
11711;SDS011;5912;51.034;6.984;2022-11-06T04:04:56;2.93;;;1.90;;
11711;SDS011;5912;51.034;6.984;2022-11-06T04:07:25;3.67;;;2.03;;
11711;SDS011;5912;51.034;6.984;2022-11-06T04:09:58;3.07;;;2.10;;
11711;SDS011;5912;51.034;6.984;2022-11-06T04:12:44;5.40;;;2.10;;
11711;SDS011;5912;51.034;6.984;2022-11-06T04:15:32;2.87;;;1.70;;
11711;SDS011;5912;51.034;6.984;2022-11-06T04:18:02;4.43;;;2.07;;
11711;SDS011;5912;51.034;6.984;2022-11-06T04:20:36;5.30;;;1.90;;
11711;SDS011;5912;51.034;6.984;2022-11-06T04:23:43;3.90;;;1.90;;
11711;SDS011;5912;51.034;6.984;2022-11-06T04:26:38;6.97;;;2.07;;
11711;SDS011;5912;51.034;6.984;2022-11-06T04:29:29;4.10;;;1.60;;
11711;SDS011;5912;51.034;6.984;2022-11-06T04:34:46;4.33;;;1.47;;
11711;SDS011;5912;51.034;6.984;2022-11-06T04:37:55;3.73;;;1.90;;
11711;SDS011;5912;51.034;6.984;2022-11-06T04:40:22;4.27;;;2.13;;
11711;SDS011;5912;51.034;6.984;2022-11-06T04:42:59;3.77;;;1.77;;
11711;SDS011;5912;51.034;6.984;2022-11-06T04:45:30;4.43;;;1.97;;
11711;SDS011;5912;51.034;6.984;2022-11-06T04:47:59;5.60;;;1.80;;
11711;SDS011;5912;51.034;6.984;2022-11-06T04:50:27;3.67;;;1.60;;
11711;SDS011;5912;51.034;6.984;2022-11-06T04:52:54;3.53;;;1.73;;
11711;SDS011;5912;51.034;6.984;2022-11-06T04:55:21;2.90;;;2.10;;
11711;SDS011;5912;51.034;6.984;2022-11-06T04:57:46;4.20;;;1.60;;
11711;SDS011;5912;51.034;6.984;2022-11-06T05:00:12;6.20;;;2.00;;
11711;SDS011;5912;51.034;6.984;2022-11-06T05:02:38;3.17;;;2.00;;
11711;SDS011;5912;51.034;6.984;2022-11-06T05:05:04;2.53;;;1.73;;
11711;SDS011;5912;51.034;6.984;2022-11-06T05:07:30;4.03;;;1.70;;
11711;SDS011;5912;51.034;6.984;2022-11-06T05:09:55;3.73;;;1.70;;
11711;SDS011;5912;51.034;6.984;2022-11-06T05:12:20;4.23;;;2.20;;
11711;SDS011;5912;51.034;6.984;2022-11-06T05:14:45;2.97;;;1.80;;
11711;SDS011;5912;51.034;6.984;2022-11-06T05:17:11;4.47;;;1.70;;
11711;SDS011;5912;51.034;6.984;2022-11-06T05:19:36;2.37;;;1.70;;
11711;SDS011;5912;51.034;6.984;2022-11-06T05:22:01;4.40;;;1.60;;
11711;SDS011;5912;51.034;6.984;2022-11-06T05:24:45;4.13;;;1.60;;
11711;SDS011;5912;51.034;6.984;2022-11-06T05:27:11;3.70;;;1.67;;
11711;SDS011;5912;51.034;6.984;2022-11-06T05:29:36;3.43;;;1.50;;
11711;SDS011;5912;51.034;6.984;2022-11-06T05:32:01;3.10;;;1.40;;
11711;SDS011;5912;51.034;6.984;2022-11-06T05:34:27;3.23;;;1.40;;
11711;SDS011;5912;51.034;6.984;2022-11-06T05:36:52;2.83;;;1.20;;
11711;SDS011;5912;51.034;6.984;2022-11-06T05:39:17;4.83;;;1.20;;
11711;SDS011;5912;51.034;6.984;2022-11-06T05:41:43;3.00;;;1.17;;
11711;SDS011;5912;51.034;6.984;2022-11-06T05:44:08;1.90;;;1.37;;
11711;SDS011;5912;51.034;6.984;2022-11-06T05:46:33;3.80;;;1.53;;
11711;SDS011;5912;51.034;6.984;2022-11-06T05:48:59;2.88;;;1.40;;
11711;SDS011;5912;51.034;6.984;2022-11-06T05:51:24;3.47;;;1.30;;
11711;SDS011;5912;51.034;6.984;2022-11-06T05:53:49;4.93;;;2.20;;
11711;SDS011;5912;51.034;6.984;2022-11-06T05:56:15;4.50;;;2.00;;
11711;SDS011;5912;51.034;6.984;2022-11-06T05:58:40;5.38;;;1.60;;
11711;SDS011;5912;51.034;6.984;2022-11-06T06:01:05;4.63;;;1.70;;
11711;SDS011;5912;51.034;6.984;2022-11-06T06:03:30;1.60;;;1.30;;
11711;SDS011;5912;51.034;6.984;2022-11-06T06:05:56;3.60;;;1.20;;
11711;SDS011;5912;51.034;6.984;2022-11-06T06:08:22;5.80;;;1.30;;
11711;SDS011;5912;51.034;6.984;2022-11-06T06:10:47;2.73;;;1.23;;
11711;SDS011;5912;51.034;6.984;2022-11-06T06:13:13;4.70;;;1.67;;
11711;SDS011;5912;51.034;6.984;2022-11-06T06:15:39;3.17;;;1.10;;
11711;SDS011;5912;51.034;6.984;2022-11-06T06:18:06;6.27;;;1.60;;
11711;SDS011;5912;51.034;6.984;2022-11-06T06:20:33;3.47;;;1.60;;
11711;SDS011;5912;51.034;6.984;2022-11-06T06:22:59;3.87;;;1.53;;
11711;SDS011;5912;51.034;6.984;2022-11-06T06:25:25;4.27;;;1.20;;
11711;SDS011;5912;51.034;6.984;2022-11-06T06:27:52;5.93;;;1.70;;
11711;SDS011;5912;51.034;6.984;2022-11-06T06:30:18;2.33;;;1.30;;
11711;SDS011;5912;51.034;6.984;2022-11-06T06:32:44;2.97;;;1.38;;
11711;SDS011;5912;51.034;6.984;2022-11-06T06:35:10;2.93;;;1.10;;
11711;SDS011;5912;51.034;6.984;2022-11-06T06:37:35;3.10;;;1.50;;
11711;SDS011;5912;51.034;6.984;2022-11-06T06:40:01;1.83;;;1.20;;
11711;SDS011;5912;51.034;6.984;2022-11-06T06:42:28;3.60;;;1.40;;
11711;SDS011;5912;51.034;6.984;2022-11-06T06:44:53;1.80;;;1.20;;
11711;SDS011;5912;51.034;6.984;2022-11-06T06:47:18;3.53;;;1.70;;
11711;SDS011;5912;51.034;6.984;2022-11-06T06:49:44;1.97;;;1.37;;
11711;SDS011;5912;51.034;6.984;2022-11-06T06:52:10;6.17;;;1.93;;
11711;SDS011;5912;51.034;6.984;2022-11-06T06:54:36;4.40;;;1.60;;
11711;SDS011;5912;51.034;6.984;2022-11-06T06:57:01;4.07;;;1.30;;
11711;SDS011;5912;51.034;6.984;2022-11-06T06:59:27;1.67;;;1.10;;
11711;SDS011;5912;51.034;6.984;2022-11-06T07:01:53;2.10;;;1.40;;
11711;SDS011;5912;51.034;6.984;2022-11-06T07:04:18;2.23;;;1.03;;
11711;SDS011;5912;51.034;6.984;2022-11-06T07:06:44;3.47;;;1.50;;
11711;SDS011;5912;51.034;6.984;2022-11-06T07:09:09;5.27;;;1.30;;
11711;SDS011;5912;51.034;6.984;2022-11-06T07:11:35;2.43;;;1.20;;
11711;SDS011;5912;51.034;6.984;2022-11-06T07:14:00;2.85;;;1.33;;
11711;SDS011;5912;51.034;6.984;2022-11-06T07:16:25;3.50;;;1.43;;
11711;SDS011;5912;51.034;6.984;2022-11-06T07:18:51;4.10;;;1.27;;
11711;SDS011;5912;51.034;6.984;2022-11-06T07:21:17;4.50;;;1.53;;
11711;SDS011;5912;51.034;6.984;2022-11-06T07:23:42;3.07;;;1.27;;
11711;SDS011;5912;51.034;6.984;2022-11-06T07:26:07;4.47;;;1.47;;
11711;SDS011;5912;51.034;6.984;2022-11-06T07:28:33;6.23;;;1.40;;
11711;SDS011;5912;51.034;6.984;2022-11-06T07:30:59;5.18;;;1.38;;
11711;SDS011;5912;51.034;6.984;2022-11-06T07:33:26;3.90;;;1.77;;
11711;SDS011;5912;51.034;6.984;2022-11-06T07:35:51;3.83;;;1.33;;
11711;SDS011;5912;51.034;6.984;2022-11-06T07:38:17;2.27;;;1.47;;
11711;SDS011;5912;51.034;6.984;2022-11-06T07:40:42;4.20;;;1.37;;
11711;SDS011;5912;51.034;6.984;2022-11-06T07:43:08;2.88;;;1.33;;
11711;SDS011;5912;51.034;6.984;2022-11-06T07:45:35;1.85;;;1.23;;
11711;SDS011;5912;51.034;6.984;2022-11-06T07:48:02;6.07;;;1.50;;
11711;SDS011;5912;51.034;6.984;2022-11-06T07:50:28;2.63;;;1.50;;
11711;SDS011;5912;51.034;6.984;2022-11-06T07:52:54;5.30;;;2.13;;
11711;SDS011;5912;51.034;6.984;2022-11-06T07:55:19;3.33;;;1.40;;
11711;SDS011;5912;51.034;6.984;2022-11-06T07:57:45;5.40;;;1.67;;
11711;SDS011;5912;51.034;6.984;2022-11-06T08:00:11;2.05;;;1.48;;
11711;SDS011;5912;51.034;6.984;2022-11-06T08:02:37;3.55;;;1.25;;
11711;SDS011;5912;51.034;6.984;2022-11-06T08:05:02;2.65;;;1.42;;
11711;SDS011;5912;51.034;6.984;2022-11-06T08:07:28;4.03;;;1.52;;
11711;SDS011;5912;51.034;6.984;2022-11-06T08:09:53;3.05;;;1.30;;
11711;SDS011;5912;51.034;6.984;2022-11-06T08:15:40;3.60;;;1.30;;
11711;SDS011;5912;51.034;6.984;2022-11-06T08:18:06;4.65;;;1.40;;
11711;SDS011;5912;51.034;6.984;2022-11-06T08:20:33;3.00;;;1.50;;
11711;SDS011;5912;51.034;6.984;2022-11-06T08:23:00;4.45;;;1.50;;
11711;SDS011;5912;51.034;6.984;2022-11-06T08:25:27;3.92;;;1.55;;
11711;SDS011;5912;51.034;6.984;2022-11-06T08:27:57;4.95;;;1.58;;
11711;SDS011;5912;51.034;6.984;2022-11-06T08:30:23;6.75;;;1.67;;
11711;SDS011;5912;51.034;6.984;2022-11-06T08:32:49;5.88;;;1.50;;
11711;SDS011;5912;51.034;6.984;2022-11-06T08:35:14;5.00;;;1.45;;
11711;SDS011;5912;51.034;6.984;2022-11-06T08:37:40;3.35;;;1.35;;
11711;SDS011;5912;51.034;6.984;2022-11-06T08:40:06;5.68;;;1.30;;
11711;SDS011;5912;51.034;6.984;2022-11-06T08:42:31;4.55;;;2.03;;
11711;SDS011;5912;51.034;6.984;2022-11-06T08:44:57;3.03;;;1.50;;
11711;SDS011;5912;51.034;6.984;2022-11-06T08:47:22;3.83;;;1.00;;
11711;SDS011;5912;51.034;6.984;2022-11-06T08:49:47;2.75;;;1.50;;
11711;SDS011;5912;51.034;6.984;2022-11-06T08:52:13;4.90;;;1.83;;
11711;SDS011;5912;51.034;6.984;2022-11-06T08:54:38;4.63;;;1.23;;
11711;SDS011;5912;51.034;6.984;2022-11-06T08:57:03;2.53;;;1.17;;
11711;SDS011;5912;51.034;6.984;2022-11-06T08:59:29;2.67;;;1.15;;
11711;SDS011;5912;51.034;6.984;2022-11-06T09:01:57;4.22;;;1.40;;
11711;SDS011;5912;51.034;6.984;2022-11-06T09:04:23;3.72;;;1.13;;
11711;SDS011;5912;51.034;6.984;2022-11-06T09:06:49;4.30;;;1.40;;
11711;SDS011;5912;51.034;6.984;2022-11-06T09:09:14;2.75;;;1.02;;
11711;SDS011;5912;51.034;6.984;2022-11-06T09:11:40;5.85;;;1.60;;
11711;SDS011;5912;51.034;6.984;2022-11-06T09:14:05;3.70;;;1.38;;
11711;SDS011;5912;51.034;6.984;2022-11-06T09:16:30;5.88;;;1.50;;
11711;SDS011;5912;51.034;6.984;2022-11-06T09:18:56;2.35;;;1.27;;
11711;SDS011;5912;51.034;6.984;2022-11-06T09:21:21;3.60;;;1.25;;
11711;SDS011;5912;51.034;6.984;2022-11-06T09:23:47;6.13;;;1.50;;
11711;SDS011;5912;51.034;6.984;2022-11-06T09:26:15;2.47;;;1.00;;
11711;SDS011;5912;51.034;6.984;2022-11-06T09:28:41;3.60;;;1.48;;
11711;SDS011;5912;51.034;6.984;2022-11-06T09:31:06;3.75;;;1.52;;
11711;SDS011;5912;51.034;6.984;2022-11-06T09:33:32;3.45;;;1.48;;
11711;SDS011;5912;51.034;6.984;2022-11-06T09:35:57;1.90;;;1.10;;
11711;SDS011;5912;51.034;6.984;2022-11-06T09:38:23;3.47;;;1.50;;
11711;SDS011;5912;51.034;6.984;2022-11-06T09:40:50;2.92;;;1.10;;
11711;SDS011;5912;51.034;6.984;2022-11-06T09:48:53;4.20;;;1.38;;
11711;SDS011;5912;51.034;6.984;2022-11-06T09:54:26;3.65;;;1.40;;
11711;SDS011;5912;51.034;6.984;2022-11-06T09:57:01;2.55;;;1.23;;
11711;SDS011;5912;51.034;6.984;2022-11-06T09:59:30;5.43;;;1.40;;
11711;SDS011;5912;51.034;6.984;2022-11-06T10:02:00;3.00;;;1.60;;
11711;SDS011;5912;51.034;6.984;2022-11-06T10:04:29;2.92;;;1.55;;
11711;SDS011;5912;51.034;6.984;2022-11-06T10:07:02;1.48;;;0.93;;
11711;SDS011;5912;51.034;6.984;2022-11-06T10:09:28;3.10;;;1.20;;
11711;SDS011;5912;51.034;6.984;2022-11-06T10:11:57;6.65;;;1.52;;
11711;SDS011;5912;51.034;6.984;2022-11-06T10:17:26;3.85;;;1.30;;
11711;SDS011;5912;51.034;6.984;2022-11-06T10:20:15;3.38;;;1.27;;
11711;SDS011;5912;51.034;6.984;2022-11-06T10:22:50;3.30;;;1.50;;
11711;SDS011;5912;51.034;6.984;2022-11-06T10:25:29;2.38;;;1.25;;
11711;SDS011;5912;51.034;6.984;2022-11-06T10:28:03;6.95;;;1.55;;
11711;SDS011;5912;51.034;6.984;2022-11-06T10:30:56;3.17;;;1.33;;
11711;SDS011;5912;51.034;6.984;2022-11-06T10:36:37;3.28;;;1.60;;
11711;SDS011;5912;51.034;6.984;2022-11-06T10:39:11;3.17;;;1.40;;
11711;SDS011;5912;51.034;6.984;2022-11-06T10:41:42;2.83;;;1.60;;
11711;SDS011;5912;51.034;6.984;2022-11-06T10:44:18;3.80;;;1.90;;
11711;SDS011;5912;51.034;6.984;2022-11-06T10:47:02;3.40;;;1.42;;
11711;SDS011;5912;51.034;6.984;2022-11-06T10:49:40;3.95;;;1.80;;
11711;SDS011;5912;51.034;6.984;2022-11-06T11:00:32;2.38;;;1.42;;
11711;SDS011;5912;51.034;6.984;2022-11-06T11:02:59;3.95;;;1.60;;
11711;SDS011;5912;51.034;6.984;2022-11-06T11:05:33;5.60;;;1.67;;
11711;SDS011;5912;51.034;6.984;2022-11-06T11:08:02;4.03;;;1.88;;
11711;SDS011;5912;51.034;6.984;2022-11-06T11:10:31;4.35;;;1.92;;
11711;SDS011;5912;51.034;6.984;2022-11-06T11:12:59;9.23;;;2.17;;
11711;SDS011;5912;51.034;6.984;2022-11-06T11:15:26;5.22;;;2.08;;
11711;SDS011;5912;51.034;6.984;2022-11-06T11:20:36;3.80;;;1.85;;
11711;SDS011;5912;51.034;6.984;2022-11-06T11:26:11;3.55;;;1.63;;
11711;SDS011;5912;51.034;6.984;2022-11-06T11:28:48;3.20;;;1.60;;
11711;SDS011;5912;51.034;6.984;2022-11-06T11:31:15;4.47;;;1.80;;
11711;SDS011;5912;51.034;6.984;2022-11-06T11:33:52;3.85;;;2.08;;
11711;SDS011;5912;51.034;6.984;2022-11-06T11:36:20;3.72;;;2.13;;
11711;SDS011;5912;51.034;6.984;2022-11-06T11:38:47;4.18;;;1.70;;
11711;SDS011;5912;51.034;6.984;2022-11-06T11:41:14;2.78;;;1.90;;
11711;SDS011;5912;51.034;6.984;2022-11-06T11:44:03;2.72;;;1.50;;
11711;SDS011;5912;51.034;6.984;2022-11-06T11:46:31;3.42;;;1.50;;
11711;SDS011;5912;51.034;6.984;2022-11-06T11:48:57;1.83;;;1.55;;
11711;SDS011;5912;51.034;6.984;2022-11-06T11:51:33;3.70;;;1.75;;
11711;SDS011;5912;51.034;6.984;2022-11-06T11:54:06;3.83;;;1.70;;
11711;SDS011;5912;51.034;6.984;2022-11-06T11:59:52;3.17;;;1.73;;
11711;SDS011;5912;51.034;6.984;2022-11-06T12:02:14;4.55;;;2.20;;
11711;SDS011;5912;51.034;6.984;2022-11-06T12:04:44;4.93;;;2.00;;
11711;SDS011;5912;51.034;6.984;2022-11-06T12:09:56;4.78;;;1.80;;
11711;SDS011;5912;51.034;6.984;2022-11-06T12:12:24;2.90;;;1.80;;
11711;SDS011;5912;51.034;6.984;2022-11-06T12:17:32;2.47;;;1.75;;
11711;SDS011;5912;51.034;6.984;2022-11-06T12:20:02;3.22;;;1.60;;
11711;SDS011;5912;51.034;6.984;2022-11-06T12:22:36;2.80;;;1.50;;
11711;SDS011;5912;51.034;6.984;2022-11-06T12:25:10;4.78;;;1.75;;
11711;SDS011;5912;51.034;6.984;2022-11-06T12:27:44;3.45;;;1.63;;
11711;SDS011;5912;51.034;6.984;2022-11-06T12:30:15;3.05;;;1.67;;
11711;SDS011;5912;51.034;6.984;2022-11-06T12:41:02;4.30;;;1.60;;
11711;SDS011;5912;51.034;6.984;2022-11-06T12:46:15;3.60;;;1.52;;
11711;SDS011;5912;51.034;6.984;2022-11-06T12:49:28;2.20;;;1.60;;
11711;SDS011;5912;51.034;6.984;2022-11-06T12:52:03;1.65;;;1.30;;
11711;SDS011;5912;51.034;6.984;2022-11-06T12:54:41;4.93;;;1.67;;
11711;SDS011;5912;51.034;6.984;2022-11-06T12:57:20;5.43;;;1.25;;
11711;SDS011;5912;51.034;6.984;2022-11-06T13:00:11;2.30;;;1.48;;
11711;SDS011;5912;51.034;6.984;2022-11-06T13:11:14;2.58;;;1.58;;
11711;SDS011;5912;51.034;6.984;2022-11-06T13:14:00;2.90;;;1.58;;
11711;SDS011;5912;51.034;6.984;2022-11-06T13:30:18;3.10;;;1.33;;
11711;SDS011;5912;51.034;6.984;2022-11-06T13:32:56;7.15;;;1.75;;
11711;SDS011;5912;51.034;6.984;2022-11-06T13:35:43;2.40;;;1.10;;
11711;SDS011;5912;51.034;6.984;2022-11-06T13:38:15;2.45;;;0.90;;
11711;SDS011;5912;51.034;6.984;2022-11-06T13:40:47;1.67;;;0.95;;
11711;SDS011;5912;51.034;6.984;2022-11-06T13:43:19;2.92;;;1.00;;
11711;SDS011;5912;51.034;6.984;2022-11-06T14:08:34;1.52;;;0.88;;
11711;SDS011;5912;51.034;6.984;2022-11-06T14:11:04;1.17;;;0.80;;
11711;SDS011;5912;51.034;6.984;2022-11-06T14:13:35;1.70;;;1.02;;
11711;SDS011;5912;51.034;6.984;2022-11-06T14:19:21;2.30;;;0.90;;
11711;SDS011;5912;51.034;6.984;2022-11-06T14:24:16;0.90;;;0.68;;
11711;SDS011;5912;51.034;6.984;2022-11-06T14:26:59;2.25;;;0.80;;
11711;SDS011;5912;51.034;6.984;2022-11-06T14:32:11;3.80;;;1.08;;
11711;SDS011;5912;51.034;6.984;2022-11-06T14:34:42;1.92;;;1.10;;
11711;SDS011;5912;51.034;6.984;2022-11-06T18:44:33;5.65;;;2.50;;
11711;SDS011;5912;51.034;6.984;2022-11-06T18:47:05;3.33;;;2.67;;
11711;SDS011;5912;51.034;6.984;2022-11-06T18:49:30;3.20;;;2.42;;
11711;SDS011;5912;51.034;6.984;2022-11-06T18:51:56;4.03;;;2.53;;
11711;SDS011;5912;51.034;6.984;2022-11-06T18:54:22;2.63;;;2.42;;
11711;SDS011;5912;51.034;6.984;2022-11-06T18:56:48;5.65;;;2.60;;
11711;SDS011;5912;51.034;6.984;2022-11-06T18:59:17;3.10;;;2.33;;
11711;SDS011;5912;51.034;6.984;2022-11-06T19:01:48;3.97;;;3.00;;
11711;SDS011;5912;51.034;6.984;2022-11-06T19:04:14;4.85;;;2.58;;
11711;SDS011;5912;51.034;6.984;2022-11-06T19:06:39;3.85;;;3.05;;
11711;SDS011;5912;51.034;6.984;2022-11-06T19:09:05;4.10;;;2.67;;
11711;SDS011;5912;51.034;6.984;2022-11-06T19:11:32;4.20;;;2.60;;
11711;SDS011;5912;51.034;6.984;2022-11-06T19:13:58;3.38;;;2.88;;
11711;SDS011;5912;51.034;6.984;2022-11-06T19:16:23;5.45;;;2.83;;
11711;SDS011;5912;51.034;6.984;2022-11-06T19:18:48;3.25;;;2.75;;
11711;SDS011;5912;51.034;6.984;2022-11-06T19:21:14;3.67;;;2.70;;
11711;SDS011;5912;51.034;6.984;2022-11-06T19:23:41;3.28;;;2.65;;
11711;SDS011;5912;51.034;6.984;2022-11-06T19:26:08;4.20;;;2.78;;
11711;SDS011;5912;51.034;6.984;2022-11-06T19:28:35;4.88;;;3.08;;
11711;SDS011;5912;51.034;6.984;2022-11-06T19:31:01;3.40;;;2.90;;
11711;SDS011;5912;51.034;6.984;2022-11-06T19:33:26;5.45;;;3.30;;
11711;SDS011;5912;51.034;6.984;2022-11-06T19:35:52;6.00;;;3.60;;
11711;SDS011;5912;51.034;6.984;2022-11-06T19:38:21;6.55;;;3.05;;
11711;SDS011;5912;51.034;6.984;2022-11-06T19:40:56;6.15;;;3.58;;
11711;SDS011;5912;51.034;6.984;2022-11-06T19:43:24;4.93;;;3.00;;
11711;SDS011;5912;51.034;6.984;2022-11-06T19:45:50;5.32;;;3.08;;
11711;SDS011;5912;51.034;6.984;2022-11-06T19:48:17;3.42;;;2.38;;
11711;SDS011;5912;51.034;6.984;2022-11-06T19:50:45;3.97;;;2.47;;
11711;SDS011;5912;51.034;6.984;2022-11-06T19:53:29;4.43;;;2.20;;
11711;SDS011;5912;51.034;6.984;2022-11-06T19:55:55;4.68;;;2.97;;
11711;SDS011;5912;51.034;6.984;2022-11-06T19:58:20;6.35;;;2.80;;
11711;SDS011;5912;51.034;6.984;2022-11-06T20:00:46;2.63;;;2.28;;
11711;SDS011;5912;51.034;6.984;2022-11-06T20:03:15;7.00;;;2.95;;
11711;SDS011;5912;51.034;6.984;2022-11-06T20:05:41;6.47;;;2.70;;
11711;SDS011;5912;51.034;6.984;2022-11-06T20:08:07;3.75;;;2.40;;
11711;SDS011;5912;51.034;6.984;2022-11-06T20:10:33;3.67;;;2.10;;
11711;SDS011;5912;51.034;6.984;2022-11-06T20:13:02;3.88;;;2.40;;
11711;SDS011;5912;51.034;6.984;2022-11-06T20:15:28;6.53;;;2.75;;
11711;SDS011;5912;51.034;6.984;2022-11-06T20:17:54;5.60;;;2.63;;
11711;SDS011;5912;51.034;6.984;2022-11-06T20:20:20;5.25;;;2.90;;
11711;SDS011;5912;51.034;6.984;2022-11-06T20:22:46;5.47;;;2.97;;
11711;SDS011;5912;51.034;6.984;2022-11-06T20:25:11;6.38;;;2.80;;
11711;SDS011;5912;51.034;6.984;2022-11-06T20:27:37;6.35;;;3.40;;
11711;SDS011;5912;51.034;6.984;2022-11-06T20:30:04;4.63;;;3.38;;
11711;SDS011;5912;51.034;6.984;2022-11-06T20:32:30;4.90;;;2.58;;
11711;SDS011;5912;51.034;6.984;2022-11-06T20:34:56;3.38;;;2.25;;
11711;SDS011;5912;51.034;6.984;2022-11-06T20:37:22;3.45;;;1.77;;
11711;SDS011;5912;51.034;6.984;2022-11-06T20:39:47;3.15;;;1.30;;
11711;SDS011;5912;51.034;6.984;2022-11-06T20:42:16;2.97;;;1.45;;
11711;SDS011;5912;51.034;6.984;2022-11-06T20:44:42;2.55;;;1.60;;
11711;SDS011;5912;51.034;6.984;2022-11-06T20:47:07;4.30;;;1.55;;
11711;SDS011;5912;51.034;6.984;2022-11-06T20:49:48;2.15;;;1.40;;
11711;SDS011;5912;51.034;6.984;2022-11-06T20:52:16;1.52;;;1.35;;
11711;SDS011;5912;51.034;6.984;2022-11-06T20:54:43;2.15;;;1.20;;
11711;SDS011;5912;51.034;6.984;2022-11-06T21:00:33;3.65;;;1.70;;
11711;SDS011;5912;51.034;6.984;2022-11-06T21:02:58;3.88;;;1.90;;
11711;SDS011;5912;51.034;6.984;2022-11-06T21:05:24;4.28;;;2.20;;
11711;SDS011;5912;51.034;6.984;2022-11-06T21:07:49;4.10;;;1.65;;
11711;SDS011;5912;51.034;6.984;2022-11-06T21:10:15;2.58;;;1.50;;
11711;SDS011;5912;51.034;6.984;2022-11-06T21:12:40;3.97;;;1.73;;
11711;SDS011;5912;51.034;6.984;2022-11-06T21:15:05;3.00;;;1.60;;
11711;SDS011;5912;51.034;6.984;2022-11-06T21:17:32;3.60;;;1.45;;
11711;SDS011;5912;51.034;6.984;2022-11-06T21:22:48;4.93;;;1.52;;
11711;SDS011;5912;51.034;6.984;2022-11-06T21:25:14;3.10;;;1.80;;
11711;SDS011;5912;51.034;6.984;2022-11-06T21:27:40;2.35;;;1.40;;
11711;SDS011;5912;51.034;6.984;2022-11-06T21:30:05;1.95;;;1.35;;
11711;SDS011;5912;51.034;6.984;2022-11-06T21:32:31;2.80;;;1.40;;
11711;SDS011;5912;51.034;6.984;2022-11-06T21:34:57;3.35;;;1.60;;
11711;SDS011;5912;51.034;6.984;2022-11-06T21:37:22;1.70;;;1.30;;